createdAt,value
2022-10-05T00:03:45.439Z,8.23
2022-10-05T00:08:48.581Z,8.19
2022-10-05T00:13:50.871Z,8.07
2022-10-05T00:18:53.709Z,8.00
2022-10-05T00:23:58.191Z,7.89
2022-10-05T00:29:08.952Z,7.77
2022-10-05T00:34:12.182Z,7.69
2022-10-05T00:39:18.396Z,7.63
2022-10-05T00:44:39.124Z,7.59
2022-10-05T00:50:28.061Z,7.63
2022-10-05T00:55:49.090Z,7.72
2022-10-05T01:01:23.614Z,7.78
2022-10-05T01:06:45.661Z,7.80
2022-10-05T01:11:54.838Z,7.82
2022-10-05T01:17:32.949Z,7.81
2022-10-05T01:23:01.813Z,7.81
2022-10-05T01:28:13.548Z,7.73
2022-10-05T01:33:25.646Z,7.62
2022-10-05T01:38:49.195Z,7.64
2022-10-05T01:43:57.965Z,7.67
2022-10-05T01:49:37.343Z,7.60
2022-10-05T01:54:55.156Z,7.59
2022-10-05T02:00:03.824Z,7.52
2022-10-05T02:05:21.857Z,7.43
2022-10-05T02:10:26.427Z,7.37
2022-10-05T02:15:59.023Z,7.33
2022-10-05T02:21:04.499Z,7.31
2022-10-05T02:26:11.162Z,7.29
2022-10-05T02:31:23.132Z,7.28
2022-10-05T02:36:36.871Z,7.31
2022-10-05T02:42:21.207Z,7.32
2022-10-05T02:47:53.611Z,7.36
2022-10-05T02:53:02.193Z,7.37
2022-10-05T02:58:14.346Z,7.34
2022-10-05T03:03:45.218Z,7.35
2022-10-05T03:08:55.553Z,7.39
2022-10-05T03:14:24.016Z,7.43
2022-10-05T03:19:29.519Z,7.44
2022-10-05T03:25:14.070Z,7.46
2022-10-05T03:30:20.773Z,7.51
2022-10-05T03:35:51.159Z,7.59
2022-10-05T03:41:12.318Z,7.59
2022-10-05T03:46:30.187Z,7.59
2022-10-05T03:51:38.483Z,7.62
2022-10-05T03:56:50.296Z,7.66
2022-10-05T04:02:03.523Z,7.73
2022-10-05T04:07:15.460Z,7.78
2022-10-05T04:12:39.229Z,7.80
2022-10-05T04:17:53.580Z,7.85
2022-10-05T04:23:05.245Z,7.92
2022-10-05T04:28:26.041Z,7.97
2022-10-05T04:33:32.431Z,8.03
2022-10-05T04:38:49.969Z,8.08
2022-10-05T04:44:21.774Z,8.15
2022-10-05T04:49:59.676Z,8.22
2022-10-05T04:55:24.397Z,8.28
2022-10-05T05:00:33.212Z,8.32
2022-10-05T05:06:17.780Z,8.29
2022-10-05T05:11:28.955Z,8.31
2022-10-05T05:16:42.745Z,8.37
2022-10-05T05:21:52.853Z,8.41
2022-10-05T05:27:24.774Z,8.51
2022-10-05T05:33:03.903Z,8.67
2022-10-05T05:38:31.454Z,8.77
2022-10-05T05:43:49.964Z,8.86
2022-10-05T05:48:56.685Z,8.98
2022-10-05T05:54:41.094Z,9.04
2022-10-05T05:59:57.551Z,9.16
2022-10-05T06:05:10.456Z,9.34
2022-10-05T06:10:41.612Z,9.48
2022-10-05T06:15:58.889Z,9.50
2022-10-05T06:21:23.675Z,9.52
2022-10-05T06:26:42.236Z,9.59
2022-10-05T06:31:44.727Z,9.68
2022-10-05T06:37:00.888Z,9.81
2022-10-05T06:42:46.363Z,9.91
2022-10-05T06:48:14.232Z,10.13
2022-10-05T06:53:38.915Z,10.33
2022-10-05T06:59:03.887Z,10.54
2022-10-05T07:04:37.115Z,10.78
2022-10-05T07:09:58.871Z,11.05
2022-10-05T07:15:19.870Z,11.46
2022-10-05T07:20:34.329Z,11.71
2022-10-05T07:25:58.805Z,11.73
2022-10-05T07:31:41.018Z,11.68
2022-10-05T07:37:25.970Z,11.75
2022-10-05T07:43:09.842Z,12.02
2022-10-05T07:48:18.867Z,12.31
2022-10-05T07:53:35.591Z,12.45
2022-10-05T07:58:44.727Z,12.84
2022-10-05T08:03:56.891Z,13.58
2022-10-05T08:09:05.150Z,14.02
2022-10-05T08:14:20.176Z,14.25
2022-10-05T08:19:50.954Z,14.31
2022-10-05T08:25:02.466Z,14.33
2022-10-05T08:30:09.859Z,14.37
2022-10-05T08:35:35.422Z,14.40
2022-10-05T08:40:54.833Z,14.38
2022-10-05T08:46:23.404Z,14.54
2022-10-05T08:51:53.225Z,14.58
2022-10-05T08:57:10.268Z,14.64
2022-10-05T09:02:28.504Z,14.73
2022-10-05T09:07:40.413Z,14.85
2022-10-05T09:13:23.787Z,14.93
2022-10-05T09:18:43.229Z,15.24
2022-10-05T09:23:56.338Z,15.43
2022-10-05T09:29:29.795Z,15.80
2022-10-05T09:34:39.574Z,16.06
2022-10-05T09:40:18.362Z,16.34
2022-10-05T09:45:41.284Z,16.58
2022-10-05T09:50:57.455Z,16.61
2022-10-05T09:56:06.475Z,16.53
2022-10-05T10:02:04.945Z,16.59
2022-10-05T10:07:46.076Z,16.70
2022-10-05T10:13:20.532Z,16.72
2022-10-05T10:18:45.640Z,16.59
2022-10-05T10:24:23.675Z,16.51
2022-10-05T10:29:51.059Z,16.70
2022-10-05T10:35:04.099Z,16.98
2022-10-05T10:40:16.120Z,17.05
2022-10-05T10:45:43.010Z,17.21
2022-10-05T10:51:17.318Z,17.48
2022-10-05T10:56:39.585Z,17.54
2022-10-05T11:02:19.505Z,17.69
2022-10-05T11:07:33.092Z,17.77
2022-10-05T11:12:44.740Z,17.83
2022-10-05T11:18:09.450Z,17.78
2022-10-05T11:23:53.476Z,17.72
2022-10-05T11:29:09.320Z,17.69
2022-10-05T11:34:30.336Z,17.72
2022-10-05T11:39:43.062Z,17.77
2022-10-05T11:45:06.934Z,17.87
2022-10-05T11:50:32.775Z,18.03
2022-10-05T11:56:06.391Z,18.23
2022-10-05T12:01:30.522Z,18.30
2022-10-05T12:06:57.564Z,18.57
2022-10-05T12:12:29.870Z,18.79
2022-10-05T12:17:43.096Z,18.87
2022-10-05T12:22:59.711Z,18.76
2022-10-05T12:28:09.655Z,18.67
2022-10-05T12:33:23.617Z,18.59
2022-10-05T12:38:49.635Z,18.43
2022-10-05T12:44:11.402Z,18.40
2022-10-05T12:49:40.585Z,18.39
2022-10-05T12:54:53.640Z,18.24
2022-10-05T13:00:09.698Z,18.36
2022-10-05T13:05:26.597Z,18.47
2022-10-05T13:10:44.732Z,18.51
2022-10-05T13:16:01.380Z,18.47
2022-10-05T13:21:21.100Z,18.33
2022-10-05T13:26:38.325Z,18.27
2022-10-05T13:31:48.111Z,18.33
2022-10-05T13:37:06.638Z,18.36
2022-10-05T13:42:41.183Z,18.29
2022-10-05T13:47:52.543Z,18.27
2022-10-05T13:53:23.711Z,18.24
2022-10-05T13:58:44.261Z,18.32
2022-10-05T14:04:17.748Z,18.35
2022-10-05T14:09:20.581Z,18.42
2022-10-05T14:14:26.729Z,18.48
2022-10-05T14:20:03.305Z,18.42
2022-10-05T14:25:11.134Z,18.26
2022-10-05T14:30:15.077Z,18.13
2022-10-05T14:35:25.779Z,18.07
2022-10-05T14:40:36.457Z,17.94
2022-10-05T14:46:00.154Z,17.83
2022-10-05T14:51:11.966Z,17.64
2022-10-05T14:56:40.668Z,17.48
2022-10-05T15:01:55.939Z,17.34
2022-10-05T15:07:27.447Z,17.21
2022-10-05T15:12:43.783Z,17.04
2022-10-05T15:17:56.008Z,16.89
2022-10-05T15:23:27.732Z,16.79
2022-10-05T15:29:04.017Z,16.64
2022-10-05T15:34:16.187Z,16.47
2022-10-05T15:39:24.882Z,16.31
2022-10-05T15:44:47.694Z,16.21
2022-10-05T15:50:11.528Z,16.12
2022-10-05T15:55:38.190Z,16.03
2022-10-05T16:00:55.193Z,15.96
2022-10-05T16:06:35.412Z,15.87
2022-10-05T16:12:06.567Z,15.80
2022-10-05T16:17:11.347Z,15.62
2022-10-05T16:22:31.483Z,15.43
2022-10-05T16:28:05.687Z,15.26
2022-10-05T16:33:18.829Z,15.14
2022-10-05T16:38:34.455Z,15.01
2022-10-05T16:43:45.718Z,14.91
2022-10-05T16:48:48.094Z,14.82
2022-10-05T16:54:20.954Z,14.76
2022-10-05T16:59:34.002Z,14.69
2022-10-05T17:04:46.162Z,14.64
2022-10-05T17:10:20.967Z,14.55
2022-10-05T17:15:32.974Z,14.49
2022-10-05T17:20:50.516Z,14.35
2022-10-05T17:26:07.582Z,14.21
2022-10-05T17:31:18.531Z,14.14
2022-10-05T17:36:37.469Z,14.06
2022-10-05T17:41:40.628Z,13.98
2022-10-05T17:46:52.264Z,13.89
2022-10-05T17:52:13.525Z,13.83
2022-10-05T17:57:27.833Z,13.76
2022-10-05T18:02:38.762Z,13.72
2022-10-05T18:07:48.121Z,13.66
2022-10-05T18:13:19.974Z,13.56
2022-10-05T18:18:54.687Z,13.44
2022-10-05T18:23:58.637Z,13.39
2022-10-05T18:29:37.936Z,13.40
2022-10-05T18:35:01.974Z,13.38
2022-10-05T18:40:24.599Z,13.32
2022-10-05T18:46:12.089Z,13.29
2022-10-05T18:51:41.106Z,13.25
2022-10-05T18:56:50.912Z,13.25
2022-10-05T19:02:20.241Z,13.25
2022-10-05T19:07:37.404Z,13.26
2022-10-05T19:13:10.620Z,13.21
2022-10-05T19:18:39.840Z,13.20
2022-10-05T19:23:58.154Z,13.19
2022-10-05T19:29:33.659Z,13.12
2022-10-05T19:35:17.276Z,13.08
2022-10-05T19:40:56.193Z,13.03
2022-10-05T19:45:59.774Z,12.99
2022-10-05T19:51:11.703Z,12.89
2022-10-05T19:56:27.131Z,12.82
2022-10-05T20:01:41.427Z,12.76
2022-10-05T20:06:48.534Z,12.73
2022-10-05T20:11:53.058Z,12.72
2022-10-05T20:17:45.523Z,12.67
2022-10-05T20:22:50.647Z,12.61
2022-10-05T20:27:58.122Z,12.52
2022-10-05T20:33:02.613Z,12.47
2022-10-05T20:38:06.310Z,12.48
2022-10-05T20:43:09.274Z,12.44
2022-10-05T20:48:11.649Z,12.41
2022-10-05T20:53:14.603Z,12.36
2022-10-05T20:58:18.092Z,12.32
2022-10-05T21:03:20.905Z,12.29
2022-10-05T21:08:24.807Z,12.25
2022-10-05T21:13:27.371Z,12.21
2022-10-05T21:18:30.708Z,12.15
2022-10-05T21:23:33.662Z,12.11
2022-10-05T21:28:36.211Z,12.10
2022-10-05T21:33:38.148Z,12.09
2022-10-05T21:38:41.065Z,12.08
2022-10-05T21:43:45.081Z,12.06
2022-10-05T21:48:48.948Z,12.03
2022-10-05T21:53:56.863Z,12.05
2022-10-05T21:59:01.296Z,12.02
2022-10-05T22:04:04.751Z,11.99
2022-10-05T22:09:06.856Z,11.95
2022-10-05T22:14:08.906Z,11.92
2022-10-05T22:19:15.975Z,11.90
2022-10-05T22:24:18.439Z,11.84
2022-10-05T22:29:21.511Z,11.82
2022-10-05T22:34:23.737Z,11.76
2022-10-05T22:39:26.992Z,11.70
2022-10-05T22:44:29.530Z,11.66
2022-10-05T22:49:35.479Z,11.58
2022-10-05T22:54:38.016Z,11.53
2022-10-05T22:59:40.639Z,11.51
2022-10-05T23:04:42.958Z,11.50
2022-10-05T23:09:45.928Z,11.48
2022-10-05T23:14:48.211Z,11.47
2022-10-05T23:19:51.010Z,11.45
2022-10-05T23:24:53.989Z,11.43
2022-10-05T23:29:57.507Z,11.40
2022-10-05T23:35:00.642Z,11.33
2022-10-05T23:40:03.675Z,11.32
2022-10-05T23:45:07.841Z,11.31
2022-10-05T23:50:10.945Z,11.31
2022-10-05T23:55:13.613Z,11.32
